Time;durP1;ratioP1;P1;durP2;ratioP2;P2;SDS_P1;SDS_P2;PMS_P1;PMS_P2;Temp;Humidity;BMP_temperature;BMP_pressure;BME280_temperature;BME280_humidity;BME280_pressure;Samples;Min_cycle;Max_cycle;Signal;HPM_P1;HPM_P2
2021/06/23 00:01:52;;;;;;;914.92;849.22;;;;;;;21.61;70.21;98344.03;5031842;28;20296;-62
2021/06/23 00:04:18;;;;;;;904.22;839.20;;;;;;;21.56;70.47;98351.31;5024747;28;20482;-64
2021/06/23 00:06:43;;;;;;;903.15;838.05;;;;;;;21.50;70.40;98356.97;5030014;28;20371;-63
2021/06/23 00:09:08;;;;;;;904.88;840.03;;;;;;;21.52;70.36;98347.25;5031723;28;20037;-64
2021/06/23 00:11:44;;;;;;;899.63;834.40;;;;;;;21.51;70.19;98348.22;5035108;28;20030;-64
2021/06/23 00:14:10;;;;;;;895.85;831.05;;;;;;;21.47;70.41;98354.59;5028420;28;20033;-64
2021/06/23 00:16:35;;;;;;;902.78;837.65;;;;;;;21.34;70.34;98357.16;5030895;28;20033;-63
2021/06/23 00:19:02;;;;;;;904.05;838.67;;;;;;;21.33;70.46;98357.28;5028039;28;20029;-64
2021/06/23 00:21:27;;;;;;;904.22;838.40;;;;;;;21.33;70.18;98352.06;5026281;28;20378;-64
2021/06/23 00:23:52;;;;;;;900.15;834.75;;;;;;;21.24;70.44;98356.13;5024745;28;20084;-63
2021/06/23 00:26:18;;;;;;;893.03;828.15;;;;;;;21.24;70.43;98355.28;5031069;28;20081;-64
2021/06/23 00:28:43;;;;;;;883.67;819.20;;;;;;;21.15;70.55;98348.91;5008441;28;20025;-64
2021/06/23 00:31:09;;;;;;;891.20;826.20;;;;;;;21.17;70.62;98359.22;5041825;28;20025;-64
2021/06/23 00:33:37;;;;;;;889.65;824.55;;;;;;;21.14;70.71;98359.41;5036217;28;20039;-63
2021/06/23 00:36:03;;;;;;;889.78;825.05;;;;;;;21.11;70.89;98367.41;5016571;28;20298;-64
2021/06/23 00:38:28;;;;;;;888.00;823.10;;;;;;;21.07;70.81;98365.94;5033610;28;20033;-64
2021/06/23 00:40:54;;;;;;;893.50;828.03;;;;;;;21.05;70.87;98362.63;5029985;28;20026;-64
2021/06/23 00:43:20;;;;;;;898.33;833.33;;;;;;;20.97;71.31;98363.94;5034820;28;20036;-64
2021/06/23 00:45:46;;;;;;;900.35;834.97;;;;;;;21.02;71.11;98365.41;5031603;28;20045;-64
2021/06/23 00:48:27;;;;;;;897.25;831.92;;;;;;;20.97;71.21;98366.53;5032623;28;20119;-64
2021/06/23 00:50:53;;;;;;;908.83;842.63;;;;;;;21.01;71.01;98367.19;5029942;28;20059;-64
2021/06/23 00:53:19;;;;;;;910.53;844.17;;;;;;;20.96;71.23;98370.09;5032271;28;20029;-63
2021/06/23 00:55:44;;;;;;;898.50;832.97;;;;;;;20.92;71.69;98375.59;5030511;28;20149;-63
2021/06/23 00:58:12;;;;;;;895.72;830.63;;;;;;;20.96;71.32;98370.09;5035948;28;20340;-64
2021/06/23 01:00:37;;;;;;;889.72;824.72;;;;;;;20.92;71.51;98376.44;5032364;28;20124;-63
2021/06/23 01:03:07;;;;;;;899.03;833.53;;;;;;;20.92;71.92;98376.44;5033842;28;20170;-63
2021/06/23 01:05:33;;;;;;;896.28;830.53;;;;;;;20.84;72.01;98385.69;5030907;28;20371;-63
2021/06/23 01:07:59;;;;;;;886.10;821.33;;;;;;;20.81;71.96;98376.31;5033063;28;20263;-63
2021/06/23 01:10:30;;;;;;;894.88;829.28;;;;;;;20.84;72.36;98378.69;5031923;28;20082;-63
2021/06/23 01:13:27;;;;;;;892.72;827.72;;;;;;;20.88;71.94;98377.56;5034849;28;20132;-63
2021/06/23 01:15:54;;;;;;;884.80;819.90;;;;;;;20.88;72.06;98381.94;5036669;28;20037;-64
2021/06/23 01:18:20;;;;;;;886.63;821.97;;;;;;;20.76;72.33;98387.94;5031608;28;20566;-64
2021/06/23 01:20:47;;;;;;;898.75;833.33;;;;;;;20.87;72.22;98386.34;5031297;28;20072;-64
2021/06/23 01:23:15;;;;;;;887.78;822.72;;;;;;;20.90;71.89;98391.34;5031343;28;20554;-64
2021/06/23 01:25:41;;;;;;;908.42;842.13;;;;;;;20.91;72.19;98397.41;5031936;28;20056;-64
2021/06/23 01:28:07;;;;;;;898.10;832.53;;;;;;;20.85;72.33;98393.41;5031345;28;20041;-63
2021/06/23 01:30:33;;;;;;;913.97;847.00;;;;;;;20.91;72.34;98395.63;5030983;28;20367;-63
2021/06/23 01:33:00;;;;;;;884.28;819.53;;;;;;;20.89;72.33;98394.88;5032478;28;20121;-63
2021/06/23 01:35:27;;;;;;;892.80;827.88;;;;;;;20.98;72.21;98394.28;5033248;28;20053;-63
2021/06/23 01:37:53;;;;;;;886.95;822.03;;;;;;;21.00;72.17;98401.19;5027942;28;20037;-63
2021/06/23 01:40:18;;;;;;;880.80;816.30;;;;;;;20.99;72.39;98395.13;5030159;28;20291;-63
2021/06/23 01:42:45;;;;;;;879.38;814.65;;;;;;;21.01;72.09;98390.63;5030658;28;20043;-63
2021/06/23 01:45:11;;;;;;;888.85;823.97;;;;;;;21.10;71.97;98397.88;5029125;28;20070;-63
2021/06/23 01:47:36;;;;;;;894.42;829.45;;;;;;;21.14;71.74;98394.16;5032388;28;21404;-63
2021/06/23 01:50:04;;;;;;;917.33;850.88;;;;;;;21.17;71.88;98403.56;5030157;28;20030;-63
2021/06/23 01:52:29;;;;;;;909.45;843.83;;;;;;;21.16;71.89;98407.09;5031590;28;20116;-63
2021/06/23 01:54:55;;;;;;;904.40;838.45;;;;;;;21.15;71.79;98410.63;5033937;28;20037;-63
2021/06/23 01:57:20;;;;;;;896.17;831.03;;;;;;;21.20;71.87;98408.56;5034910;28;20041;-63
2021/06/23 01:59:47;;;;;;;903.20;837.80;;;;;;;21.24;71.74;98410.03;5032402;28;20048;-64
2021/06/23 02:02:15;;;;;;;893.80;828.63;;;;;;;21.31;71.50;98411.28;5033623;28;20120;-64
2021/06/23 02:04:59;;;;;;;906.20;840.80;;;;;;;21.34;71.47;98411.13;5033766;28;20073;-64
2021/06/23 02:07:30;;;;;;;903.80;838.08;;;;;;;21.41;71.25;98412.38;5030551;28;20030;-64
2021/06/23 02:10:04;;;;;;;903.58;838.05;;;;;;;21.41;71.35;98407.16;5034685;28;20043;-64
2021/06/23 02:12:30;;;;;;;906.28;840.25;;;;;;;21.45;71.21;98421.66;5034961;28;20087;-64
2021/06/23 02:14:59;;;;;;;899.90;834.70;;;;;;;21.52;71.02;98420.31;5034467;28;20033;-63
2021/06/23 02:17:27;;;;;;;914.33;848.20;;;;;;;21.52;71.05;98427.28;5033360;28;20536;-64
2021/06/23 02:19:54;;;;;;;914.47;848.60;;;;;;;21.48;71.09;98418.00;5028091;28;20042;-63
2021/06/23 02:22:22;;;;;;;919.13;852.88;;;;;;;21.62;70.60;98420.53;5030289;28;20052;-63
2021/06/23 02:24:50;;;;;;;916.28;850.50;;;;;;;21.61;70.86;98419.69;5031907;28;20064;-63
2021/06/23 02:27:16;;;;;;;921.40;855.22;;;;;;;21.58;70.80;98419.06;5028635;28;20053;-64
2021/06/23 02:29:44;;;;;;;914.70;848.63;;;;;;;21.62;70.82;98426.59;5028925;28;20084;-63
2021/06/23 02:32:13;;;;;;;923.72;857.53;;;;;;;21.62;71.13;98423.97;5036551;28;20041;-64
2021/06/23 02:34:41;;;;;;;922.90;856.97;;;;;;;21.61;70.86;98426.69;5032723;28;20368;-64
2021/06/23 02:37:08;;;;;;;925.38;859.00;;;;;;;21.67;70.70;98421.06;5027827;28;20038;-63
2021/06/23 02:39:34;;;;;;;921.70;855.70;;;;;;;21.61;70.70;98419.69;5029368;28;20060;-64
2021/06/23 02:41:59;;;;;;;923.58;857.53;;;;;;;21.65;70.68;98423.78;5033721;28;20544;-64
2021/06/23 02:44:25;;;;;;;921.55;855.83;;;;;;;21.63;70.88;98423.06;5031133;28;20033;-64
2021/06/23 02:46:51;;;;;;;930.60;864.38;;;;;;;21.64;70.66;98427.31;5031608;28;20045;-64
2021/06/23 02:49:18;;;;;;;922.88;856.95;;;;;;;21.76;70.34;98420.44;5030666;28;20048;-64
2021/06/23 02:51:44;;;;;;;914.75;849.00;;;;;;;21.71;70.34;98432.97;5011340;28;20036;-64
2021/06/23 02:54:11;;;;;;;925.35;858.95;;;;;;;21.70;70.36;98442.56;5032277;28;20119;-64
2021/06/23 02:56:37;;;;;;;930.58;864.00;;;;;;;21.76;70.05;98442.16;5029868;28;20048;-62
2021/06/23 02:59:04;;;;;;;920.83;854.80;;;;;;;21.71;70.38;98435.56;5029542;28;20040;-63
2021/06/23 03:01:30;;;;;;;927.60;861.25;;;;;;;21.68;70.48;98436.63;5031852;28;20123;-64
2021/06/23 03:03:56;;;;;;;920.85;855.05;;;;;;;21.71;69.99;98433.81;5025397;28;20044;-64
2021/06/23 03:06:22;;;;;;;921.90;855.70;;;;;;;21.73;69.95;98444.13;5029229;28;20068;-64
2021/06/23 03:08:47;;;;;;;933.10;866.33;;;;;;;21.72;69.44;98435.50;5029740;28;20033;-64
2021/06/23 03:11:13;;;;;;;925.03;859.10;;;;;;;21.72;69.34;98443.31;5032261;28;20029;-64
2021/06/23 03:13:38;;;;;;;930.38;863.83;;;;;;;21.67;69.38;98442.78;5032720;28;20037;-63
2021/06/23 03:16:04;;;;;;;921.08;855.17;;;;;;;21.72;69.21;98443.31;5028991;28;20029;-63
2021/06/23 03:18:32;;;;;;;927.80;861.30;;;;;;;21.69;69.18;98450.50;5026923;28;20617;-63
2021/06/23 03:20:58;;;;;;;923.08;857.22;;;;;;;21.67;69.08;98457.59;5027114;28;20095;-64
2021/06/23 03:23:24;;;;;;;928.30;861.67;;;;;;;21.71;68.66;98457.28;5034625;28;20032;-64
2021/06/23 03:25:50;;;;;;;931.63;865.20;;;;;;;21.76;68.63;98468.28;5031624;28;20051;-63
2021/06/23 03:28:15;;;;;;;913.13;847.67;;;;;;;21.71;68.72;98466.91;5029015;28;20025;-64
2021/06/23 03:30:41;;;;;;;919.15;853.42;;;;;;;21.76;68.67;98477.88;5027760;28;20031;-64
2021/06/23 03:33:06;;;;;;;927.47;861.03;;;;;;;21.72;68.58;98474.63;5024803;28;20397;-63
2021/06/23 03:35:32;;;;;;;927.85;861.78;;;;;;;21.77;68.30;98484.72;5029412;28;20032;-64
2021/06/23 03:37:58;;;;;;;925.20;859.30;;;;;;;21.79;67.86;98477.66;5030808;28;20044;-64
2021/06/23 03:40:24;;;;;;;923.47;857.70;;;;;;;21.81;67.81;98487.03;5030646;28;20029;-64
2021/06/23 03:42:49;;;;;;;924.80;859.03;;;;;;;21.82;67.95;98483.50;5029102;28;20278;-64
2021/06/23 03:45:16;;;;;;;926.40;860.60;;;;;;;21.93;67.41;98488.06;5032630;28;20039;-64
2021/06/23 03:47:42;;;;;;;924.08;858.05;;;;;;;21.84;67.25;98484.25;5031592;28;20107;-64
2021/06/23 03:50:09;;;;;;;919.83;854.40;;;;;;;21.92;67.06;98480.28;5027190;28;20040;-64
2021/06/23 03:52:35;;;;;;;917.72;852.50;;;;;;;21.89;66.92;98483.94;5012526;28;20374;-64
2021/06/23 03:55:01;;;;;;;920.38;855.10;;;;;;;21.84;66.78;98486.03;5026388;28;20111;-64
2021/06/23 03:57:27;;;;;;;924.47;858.83;;;;;;;21.76;67.16;98481.31;5030054;28;20370;-64
2021/06/23 03:59:52;;;;;;;921.85;856.38;;;;;;;21.79;67.06;98488.94;5029875;28;20367;-64
2021/06/23 04:02:18;;;;;;;918.30;853.08;;;;;;;21.92;67.18;98491.59;5029790;28;20045;-64
2021/06/23 04:04:45;;;;;;;926.22;860.75;;;;;;;21.95;66.95;98491.38;5028037;28;20075;-63
2021/06/23 04:07:11;;;;;;;922.58;856.63;;;;;;;22.05;66.44;98496.81;5028669;28;20402;-63
2021/06/23 04:09:37;;;;;;;916.47;851.22;;;;;;;22.08;66.46;98494.00;5035649;28;20025;-64
2021/06/23 04:12:03;;;;;;;915.47;849.90;;;;;;;22.11;66.39;98502.44;5030986;28;20032;-64
2021/06/23 04:14:29;;;;;;;925.05;859.45;;;;;;;22.06;66.30;98506.34;5014636;28;20029;-64
2021/06/23 04:16:55;;;;;;;921.90;856.30;;;;;;;21.98;66.76;98499.00;5024475;28;20483;-64
2021/06/23 04:19:20;;;;;;;926.80;860.88;;;;;;;22.09;66.48;98504.34;5021683;28;20034;-64
2021/06/23 04:21:46;;;;;;;925.90;859.70;;;;;;;22.08;66.56;98500.06;5029108;28;20025;-63
2021/06/23 04:24:11;;;;;;;923.72;858.33;;;;;;;21.90;66.84;98510.88;5028146;28;20048;-63
2021/06/23 04:26:38;;;;;;;931.88;866.10;;;;;;;21.99;66.68;98515.50;5011509;28;20048;-63
2021/06/23 04:29:03;;;;;;;927.92;861.97;;;;;;;21.95;66.63;98512.25;5035774;28;20120;-64
2021/06/23 04:31:28;;;;;;;918.85;853.45;;;;;;;22.00;66.85;98522.41;5028414;28;20117;-64
2021/06/23 04:33:54;;;;;;;927.80;862.10;;;;;;;21.82;67.38;98525.25;5028050;28;20392;-64
2021/06/23 04:36:19;;;;;;;928.00;862.13;;;;;;;21.90;67.20;98518.72;5034273;28;20048;-64
2021/06/23 04:38:45;;;;;;;929.25;863.22;;;;;;;21.77;67.19;98526.50;5034731;28;20087;-64
2021/06/23 04:41:10;;;;;;;928.47;862.45;;;;;;;21.74;67.32;98524.09;5033056;28;20038;-63
2021/06/23 04:43:36;;;;;;;920.25;854.85;;;;;;;21.81;67.18;98523.59;5033605;28;20524;-63
2021/06/23 04:46:02;;;;;;;915.60;849.78;;;;;;;21.84;67.17;98531.22;5028388;28;20025;-63
2021/06/23 04:48:29;;;;;;;923.50;857.33;;;;;;;21.90;67.28;98523.94;5024885;28;20417;-62
2021/06/23 04:50:55;;;;;;;919.63;853.85;;;;;;;21.88;67.02;98530.09;5025309;28;20026;-63
2021/06/23 04:53:20;;;;;;;918.60;852.95;;;;;;;21.85;67.29;98527.66;5029613;28;20117;-64
2021/06/23 04:55:45;;;;;;;924.33;858.63;;;;;;;21.86;66.96;98531.94;5027551;28;20025;-64
2021/06/23 04:58:11;;;;;;;924.78;859.17;;;;;;;21.92;67.14;98530.75;5027207;28;20037;-63
2021/06/23 05:00:36;;;;;;;922.75;857.20;;;;;;;21.84;67.35;98536.47;5027228;28;20048;-64
2021/06/23 05:03:02;;;;;;;918.72;853.28;;;;;;;21.97;66.99;98530.44;5026277;28;20026;-64
2021/06/23 05:05:27;;;;;;;927.03;861.28;;;;;;;21.87;67.23;98530.19;5026958;28;20109;-64
2021/06/23 05:07:54;;;;;;;920.28;855.03;;;;;;;21.94;67.09;98521.03;5033352;28;20302;-63
2021/06/23 05:10:19;;;;;;;923.28;857.58;;;;;;;21.97;66.92;98525.22;5032215;28;20047;-63
2021/06/23 05:12:45;;;;;;;924.97;859.50;;;;;;;21.98;66.99;98537.34;5036192;28;20325;-64
2021/06/23 05:15:11;;;;;;;923.38;858.00;;;;;;;22.09;66.98;98533.06;5031940;28;20375;-64
2021/06/23 05:17:37;;;;;;;924.63;859.33;;;;;;;22.14;66.63;98535.38;5031834;28;20162;-67
2021/06/23 05:20:03;;;;;;;930.05;864.58;;;;;;;22.21;66.68;98547.91;5031736;28;20116;-65
2021/06/23 05:22:29;;;;;;;932.67;866.35;;;;;;;22.29;66.59;98552.59;5035488;28;20048;-65
2021/06/23 05:24:55;;;;;;;935.30;869.33;;;;;;;22.35;66.17;98562.66;5031538;28;20065;-67
2021/06/23 05:27:21;;;;;;;935.80;870.03;;;;;;;22.21;66.04;98571.41;5034638;28;20086;-64
2021/06/23 05:29:46;;;;;;;937.70;871.75;;;;;;;22.28;66.19;98572.66;5037384;28;20037;-67
2021/06/23 05:32:12;;;;;;;937.97;872.10;;;;;;;22.45;65.82;98584.59;5036711;28;20082;-68
2021/06/23 05:34:37;;;;;;;942.15;876.08;;;;;;;22.53;66.01;98578.88;5037625;28;20365;-65
2021/06/23 05:37:03;;;;;;;947.78;881.17;;;;;;;22.62;65.80;98579.06;5036497;28;20090;-67
2021/06/23 05:39:28;;;;;;;953.00;886.20;;;;;;;22.76;65.31;98584.22;5037421;28;20033;-70
2021/06/23 05:41:54;;;;;;;949.72;883.50;;;;;;;23.05;64.53;98576.94;5033181;28;20382;-69
2021/06/23 05:44:19;;;;;;;955.42;888.75;;;;;;;22.81;63.92;98581.28;5029271;28;20315;-69
2021/06/23 05:46:46;;;;;;;958.33;891.28;;;;;;;22.88;64.28;98574.66;5034317;28;20072;-69
2021/06/23 05:49:11;;;;;;;957.03;890.33;;;;;;;22.96;63.94;98566.28;5032037;28;20390;-69
2021/06/23 05:51:37;;;;;;;960.05;893.17;;;;;;;23.10;63.59;98571.38;5033292;28;20041;-69
2021/06/23 05:54:02;;;;;;;962.88;895.47;;;;;;;23.38;62.97;98575.50;5026909;28;20033;-69
2021/06/23 05:56:28;;;;;;;956.13;889.42;;;;;;;23.43;62.94;98582.09;5030460;28;20080;-69
2021/06/23 05:58:54;;;;;;;969.97;902.35;;;;;;;23.45;62.40;98577.59;5011976;28;20050;-68
2021/06/23 06:01:20;;;;;;;972.90;905.50;;;;;;;23.40;62.26;98582.28;5032503;28;20047;-69
2021/06/23 06:03:45;;;;;;;969.58;902.45;;;;;;;23.52;62.34;98589.28;5033581;28;20038;-70
2021/06/23 06:26:23;;;;;;;992.65;923.25;;;;;;;23.95;62.71;98602.69;5031033;28;20040;-85
2021/06/23 06:39:28;;;;;;;1000.28;931.15;;;;;;;24.26;60.65;98616.16;5044869;28;20106;-86
2021/06/23 06:41:54;;;;;;;1004.45;935.53;;;;;;;24.27;60.47;98618.69;5036296;28;20033;-86
2021/06/23 06:44:21;;;;;;;999.75;931.13;;;;;;;24.52;59.85;98615.03;5046240;28;20094;-86
2021/06/23 06:46:46;;;;;;;1008.22;938.90;;;;;;;24.80;59.31;98626.88;5043080;28;20099;-85
2021/06/23 06:49:11;;;;;;;1009.97;941.03;;;;;;;24.76;58.52;98621.03;5044901;28;20052;-86
2021/06/23 06:51:37;;;;;;;1006.63;937.90;;;;;;;25.19;57.70;98620.34;5044393;28;20067;-86
2021/06/23 06:54:02;;;;;;;1019.40;949.90;;;;;;;25.50;57.14;98606.47;5042409;28;20268;-87
2021/06/23 06:56:28;;;;;;;1017.22;947.25;;;;;;;25.54;56.57;98607.06;5043163;28;20036;-87
2021/06/23 06:58:53;;;;;;;1019.58;950.15;;;;;;;25.55;55.58;98619.22;5044301;28;20068;-88
2021/06/23 07:01:19;;;;;;;1025.13;955.67;;;;;;;25.64;55.10;98619.34;5043301;28;20029;-88
2021/06/23 07:03:44;;;;;;;1022.67;953.35;;;;;;;25.70;55.71;98608.34;5044266;28;20039;-89
2021/06/23 07:06:10;;;;;;;1032.78;963.03;;;;;;;25.68;55.56;98614.66;5047002;28;20033;-91
2021/06/23 07:08:35;;;;;;;1029.28;959.45;;;;;;;25.53;55.45;98610.63;5048391;28;20056;-89
2021/06/23 07:11:00;;;;;;;1028.50;958.92;;;;;;;25.64;55.28;98607.97;5047028;28;20044;-87
2021/06/23 07:13:26;;;;;;;1020.50;951.75;;;;;;;25.76;54.17;98609.63;5048168;28;20041;-85
2021/06/23 07:15:51;;;;;;;1052.10;980.65;;;;;;;25.47;55.33;98610.16;5046072;28;20041;-88
2021/06/23 07:18:17;;;;;;;1046.18;975.42;;;;;;;25.59;54.95;98608.34;5041914;28;20331;-86
2021/06/23 07:20:42;;;;;;;1045.07;974.38;;;;;;;25.48;55.00;98598.69;5040866;28;20120;-86
2021/06/23 07:23:07;;;;;;;1047.82;977.05;;;;;;;25.52;55.18;98604.53;5042382;28;20033;-86
2021/06/23 07:25:33;;;;;;;1044.97;974.30;;;;;;;25.72;55.24;98610.81;5045789;28;20044;-86
2021/06/23 07:27:58;;;;;;;1031.43;961.90;;;;;;;25.95;55.08;98614.22;5044962;28;20378;-85
2021/06/23 07:30:24;;;;;;;1040.35;969.72;;;;;;;25.93;55.08;98615.16;5044936;28;20025;-85
2021/06/23 07:38:01;;;;;;;1040.05;969.85;;;;;;;26.41;53.39;98620.00;5044924;28;20047;-86
2021/06/23 07:41:12;;;;;;;1032.88;963.00;;;;;;;26.45;53.73;98608.25;5045485;28;20037;-85
2021/06/23 07:43:13;;;;;;;1035.38;965.70;;;;;;;26.22;53.68;98620.72;5040538;28;20103;-85
2021/06/23 07:45:43;;;;;;;1036.40;966.63;;;;;;;26.20;53.87;98619.16;5042619;28;20051;-84
2021/06/23 07:48:09;;;;;;;1044.78;974.38;;;;;;;26.50;52.87;98621.00;5040587;28;20029;-85
2021/06/23 07:50:42;;;;;;;1037.43;967.55;;;;;;;26.67;52.52;98628.31;5049453;28;20255;-85
2021/06/23 08:14:52;;;;;;;1039.65;969.60;;;;;;;26.90;51.40;98615.88;4901834;29;20047;-84
2021/06/23 08:17:17;;;;;;;1038.05;967.90;;;;;;;27.07;50.50;98617.88;4885629;29;20117;-85
2021/06/23 08:19:43;;;;;;;1041.70;971.92;;;;;;;27.18;50.33;98621.25;4885739;29;20076;-85
2021/06/23 08:22:11;;;;;;;1054.53;983.70;;;;;;;27.16;50.07;98624.97;4899161;29;20083;-85
2021/06/23 08:24:40;;;;;;;1045.72;975.67;;;;;;;27.13;49.99;98623.44;4880604;29;20028;-85
2021/06/23 08:27:07;;;;;;;1054.82;984.08;;;;;;;27.35;49.34;98630.31;4896009;29;20052;-84
2021/06/23 08:29:33;;;;;;;1064.78;993.30;;;;;;;27.31;49.63;98620.16;4895457;29;20065;-85
2021/06/23 08:31:58;;;;;;;1055.43;984.45;;;;;;;27.32;49.43;98621.84;4904714;28;20403;-85
2021/06/23 08:34:27;;;;;;;1062.15;991.15;;;;;;;27.59;48.98;98640.50;4963786;28;20410;-85
2021/06/23 08:36:53;;;;;;;1074.50;998.63;;;;;;;27.78;48.69;98634.44;4979989;28;20026;-86
2021/06/23 08:39:18;;;;;;;1070.93;996.72;;;;;;;27.99;48.08;98632.50;4965566;28;20043;-86
2021/06/23 08:41:43;;;;;;;1067.65;995.67;;;;;;;28.05;47.95;98638.06;4958863;28;20039;-85
2021/06/23 08:44:09;;;;;;;1066.50;994.63;;;;;;;28.04;48.02;98638.22;4960929;28;20066;-86
2021/06/23 08:46:38;;;;;;;1070.85;996.88;;;;;;;28.16;47.32;98639.75;4980684;28;20043;-87
2021/06/23 08:49:05;;;;;;;1072.35;998.30;;;;;;;27.77;48.17;98648.56;4979093;28;20042;-85
2021/06/23 08:51:31;;;;;;;1065.25;994.20;;;;;;;27.76;48.37;98646.91;4993388;28;20033;-86
2021/06/23 08:53:56;;;;;;;1067.38;995.95;;;;;;;28.03;47.79;98647.09;5046595;28;20443;-86
2021/06/23 08:56:22;;;;;;;1069.28;997.50;;;;;;;28.14;47.60;98644.34;5040560;28;20025;-87
2021/06/23 08:58:47;;;;;;;1076.72;999.60;;;;;;;27.93;47.96;98631.25;5041882;28;20286;-88
2021/06/23 09:01:13;;;;;;;1059.70;989.22;;;;;;;27.88;48.26;98638.75;5046376;28;20033;-87
2021/06/23 09:04:00;;;;;;;1071.55;996.97;;;;;;;27.98;47.81;98642.22;5034413;28;20032;-87
2021/06/23 09:06:39;;;;;;;1071.85;997.33;;;;;;;27.79;48.38;98647.50;5036562;28;20093;-87
2021/06/23 09:09:21;;;;;;;1065.60;993.88;;;;;;;27.98;47.96;98649.28;5043022;28;20037;-88
2021/06/23 09:11:51;;;;;;;1072.65;997.85;;;;;;;27.99;47.77;98651.81;5042693;28;20064;-87
2021/06/23 09:14:18;;;;;;;1061.95;991.35;;;;;;;27.87;48.37;98647.63;5042487;28;20063;-86
2021/06/23 09:17:08;;;;;;;1066.38;994.80;;;;;;;28.14;48.35;98653.06;5042949;28;20025;-85
2021/06/23 09:19:40;;;;;;;1060.10;989.60;;;;;;;27.92;48.19;98658.56;5044754;28;20060;-87
2021/06/23 09:22:28;;;;;;;1065.03;993.88;;;;;;;28.19;48.02;98660.56;5046424;28;20021;-87
2021/06/23 09:24:54;;;;;;;1073.70;999.78;;;;;;;28.29;47.97;98656.13;5044659;28;20384;-89
2021/06/23 09:27:21;;;;;;;1072.20;997.42;;;;;;;28.06;48.25;98660.81;5044155;28;20160;-89
2021/06/23 09:29:47;;;;;;;1064.53;993.70;;;;;;;28.25;47.15;98664.47;5043623;28;20029;-87
2021/06/23 09:32:13;;;;;;;1065.10;994.05;;;;;;;28.21;47.54;98661.28;5042876;28;20101;-87
2021/06/23 09:34:45;;;;;;;1071.03;997.75;;;;;;;28.29;47.49;98666.69;5043924;28;20430;-88
2021/06/23 09:37:28;;;;;;;1068.07;996.03;;;;;;;28.18;47.95;98671.28;5044702;28;20048;-86
2021/06/23 09:40:10;;;;;;;1069.47;997.50;;;;;;;28.29;47.55;98671.97;5046683;28;20026;-86
2021/06/23 09:42:48;;;;;;;1072.10;998.35;;;;;;;28.55;47.76;98670.41;5056706;28;20036;-86
2021/06/23 09:45:15;;;;;;;1075.03;999.45;;;;;;;28.71;47.26;98664.59;5043263;28;20132;-85
2021/06/23 09:47:43;;;;;;;1076.70;999.65;;;;;;;28.38;47.19;98657.09;5042898;28;20020;-87
2021/06/23 09:50:16;;;;;;;1073.05;998.47;;;;;;;28.38;47.40;98660.59;5041760;28;20025;-87
2021/06/23 09:53:01;;;;;;;1070.97;997.22;;;;;;;28.36;47.33;98661.69;5041455;28;20357;-86
2021/06/23 09:55:47;;;;;;;1070.07;997.35;;;;;;;28.02;48.55;98658.59;5050246;28;20025;-87
2021/06/23 09:58:20;;;;;;;1065.18;994.53;;;;;;;28.30;48.50;98660.44;5041784;28;20024;-87
2021/06/23 10:01:08;;;;;;;1075.30;999.50;;;;;;;28.32;48.11;98663.75;5042963;28;20031;-88
2021/06/23 10:03:51;;;;;;;1060.13;989.72;;;;;;;28.31;48.01;98661.25;5043792;28;20033;-87
2021/06/23 10:06:23;;;;;;;1081.78;999.90;;;;;;;28.29;48.15;98661.41;5047260;28;20364;-89
2021/06/23 10:08:49;;;;;;;1070.93;997.80;;;;;;;28.51;47.48;98661.13;5040093;28;20317;-89
2021/06/23 10:11:27;;;;;;;1084.97;999.90;;;;;;;28.40;48.10;98650.69;5044108;28;20274;-86
2021/06/23 10:13:53;;;;;;;1071.20;997.55;;;;;;;28.25;48.36;98661.84;5040938;28;20301;-89
2021/06/23 10:16:19;;;;;;;1112.78;999.90;;;;;;;28.41;48.38;98665.56;5035687;28;20033;-87
2021/06/23 10:18:45;;;;;;;1076.30;999.17;;;;;;;28.54;48.55;98663.47;5037223;28;20041;-88
2021/06/23 10:21:11;;;;;;;1074.85;999.17;;;;;;;28.70;46.99;98670.00;5041876;28;20063;-89
2021/06/23 10:23:37;;;;;;;1070.25;997.45;;;;;;;28.84;46.96;98685.38;5043794;28;20541;-91
2021/06/23 10:26:04;;;;;;;1079.68;999.90;;;;;;;28.52;47.19;98664.56;5041576;28;20041;-91
2021/06/23 10:28:31;;;;;;;1069.63;996.83;;;;;;;28.67;47.02;98678.16;5043883;28;20083;-92
2021/06/23 10:30:57;;;;;;;1083.22;999.90;;;;;;;28.58;47.62;98672.78;5041640;28;20031;-89
2021/06/23 10:33:23;;;;;;;1084.35;999.90;;;;;;;28.54;47.76;98671.38;5042923;28;20026;-91
2021/06/23 10:35:49;;;;;;;1082.63;999.90;;;;;;;28.43;48.15;98668.88;5042069;28;20029;-88
2021/06/23 10:38:18;;;;;;;1081.70;999.90;;;;;;;28.51;47.77;98673.47;5043801;28;20333;-88
2021/06/23 10:40:43;;;;;;;1084.28;999.90;;;;;;;28.22;47.87;98672.66;5044967;28;20025;-87
2021/06/23 10:43:15;;;;;;;1073.18;998.63;;;;;;;28.39;47.28;98680.69;5041038;28;20017;-88
2021/06/23 10:45:44;;;;;;;1073.28;998.75;;;;;;;28.66;46.97;98679.97;5045731;28;20124;-87
2021/06/23 10:48:11;;;;;;;1080.72;999.90;;;;;;;28.52;47.05;98680.41;5043459;28;20092;-88
2021/06/23 10:50:37;;;;;;;1082.15;999.90;;;;;;;28.70;46.95;98670.81;5043086;28;20080;-88
2021/06/23 10:53:23;;;;;;;1064.57;993.80;;;;;;;28.80;47.17;98671.66;5039764;28;20037;-89
2021/06/23 10:55:49;;;;;;;1073.93;998.63;;;;;;;28.63;47.09;98667.06;5043087;28;20025;-90
2021/06/23 10:58:14;;;;;;;1075.07;999.35;;;;;;;28.58;46.93;98667.50;5039872;28;20033;-90
2021/06/23 11:00:44;;;;;;;1075.18;998.90;;;;;;;28.74;46.73;98676.66;5041716;28;20028;-87
2021/06/23 11:03:15;;;;;;;1079.93;999.90;;;;;;;28.67;46.56;98659.69;5041885;28;20108;-86
2021/06/23 11:05:51;;;;;;;1071.78;998.30;;;;;;;28.97;46.69;98675.34;5030822;28;20040;-86
2021/06/23 11:08:26;;;;;;;1078.15;999.90;;;;;;;29.04;45.77;98658.78;5031713;28;20021;-86
2021/06/23 11:10:52;;;;;;;1077.97;999.90;;;;;;;29.16;45.66;98661.22;5032209;28;20057;-87
2021/06/23 11:13:20;;;;;;;1089.32;999.90;;;;;;;29.01;45.64;98650.31;5028317;28;20290;-86
2021/06/23 11:15:49;;;;;;;1092.50;999.90;;;;;;;29.04;45.17;98642.94;5019302;28;20037;-87
2021/06/23 11:18:34;;;;;;;1088.55;999.90;;;;;;;29.17;45.91;98660.25;5017829;28;20041;-86
2021/06/23 11:21:02;;;;;;;1115.28;999.90;;;;;;;28.87;45.82;98662.19;5013987;28;20306;-88
2021/06/23 11:24:00;;;;;;;1085.47;999.90;;;;;;;29.01;45.74;98668.81;5018271;28;20029;-87
2021/06/23 11:26:28;;;;;;;1083.78;999.90;;;;;;;28.99;45.31;98662.81;5020521;28;20060;-86
2021/06/23 11:28:58;;;;;;;1090.88;999.90;;;;;;;29.18;45.01;98661.94;5033834;28;20025;-86
2021/06/23 11:31:41;;;;;;;1084.78;999.90;;;;;;;29.40;44.29;98656.31;5023932;28;20416;-85
2021/06/23 11:34:07;;;;;;;1081.90;999.90;;;;;;;29.53;44.04;98659.44;5036789;28;20051;-87
2021/06/23 11:36:32;;;;;;;1092.63;999.90;;;;;;;29.66;43.89;98654.63;5034530;28;20034;-86
2021/06/23 11:38:58;;;;;;;1099.50;999.90;;;;;;;29.93;43.92;98649.31;5033825;28;20033;-87
2021/06/23 11:41:24;;;;;;;1100.13;999.90;;;;;;;30.12;43.20;98645.69;5034209;28;20022;-87
2021/06/23 11:43:50;;;;;;;1090.70;999.90;;;;;;;29.96;43.29;98642.88;5026659;28;20033;-87
2021/06/23 11:46:17;;;;;;;1104.60;999.90;;;;;;;30.12;43.09;98647.50;5033948;28;20113;-86
2021/06/23 11:48:42;;;;;;;1104.95;999.90;;;;;;;30.15;42.92;98645.38;5026228;28;20025;-87
2021/06/23 11:51:10;;;;;;;1118.15;999.90;;;;;;;30.54;42.38;98642.41;5035171;28;20397;-87
2021/06/23 11:53:35;;;;;;;1100.45;999.90;;;;;;;30.48;42.42;98646.50;5025404;28;20048;-87
2021/06/23 11:56:01;;;;;;;1128.07;999.90;;;;;;;30.32;42.33;98649.00;5029299;28;20026;-86
2021/06/23 11:58:26;;;;;;;1111.72;999.90;;;;;;;30.06;41.92;98648.09;5026800;28;20076;-86
2021/06/23 12:00:52;;;;;;;1109.47;999.90;;;;;;;30.24;42.41;98649.78;5035078;28;20095;-85